createdAt,value
2022-12-06T00:00:49.893Z,101072.56
2022-12-06T00:06:04.124Z,101068.22
2022-12-06T00:11:13.116Z,101068.22
2022-12-06T00:16:20.024Z,101066.50
2022-12-06T00:21:30.933Z,101060.50
2022-12-06T00:26:39.302Z,101044.13
2022-12-06T00:31:45.706Z,101042.41
2022-12-06T00:36:53.367Z,101044.97
2022-12-06T00:41:59.559Z,101041.53
2022-12-06T00:47:06.241Z,101039.81
2022-12-06T00:52:14.198Z,101037.25
2022-12-06T00:57:20.635Z,101026.97
2022-12-06T01:02:26.907Z,101014.94
2022-12-06T01:07:34.685Z,101018.38
2022-12-06T01:12:41.445Z,101008.88
2022-12-06T01:17:47.947Z,101012.31
2022-12-06T01:22:55.613Z,100999.44
2022-12-06T01:28:01.846Z,100984.84
2022-12-06T01:33:08.011Z,100989.13
2022-12-06T01:38:15.830Z,100976.28
2022-12-06T01:43:37.317Z,100984.84
2022-12-06T01:48:44.655Z,100967.69
2022-12-06T01:53:55.357Z,100965.13
2022-12-06T01:59:02.202Z,100960.81
2022-12-06T02:04:09.331Z,100953.09
2022-12-06T02:09:18.987Z,100953.97
2022-12-06T02:14:29.480Z,100951.38
2022-12-06T02:20:05.206Z,100947.09
2022-12-06T02:26:04.790Z,100945.38
2022-12-06T02:31:18.476Z,100947.09
2022-12-06T02:36:33.565Z,100953.97
2022-12-06T02:41:46.210Z,100942.84
2022-12-06T02:46:56.219Z,100920.53
2022-12-06T02:52:03.044Z,100917.09
2022-12-06T02:57:09.524Z,100915.38
2022-12-06T03:02:17.377Z,100904.19
2022-12-06T03:07:43.944Z,100910.25
2022-12-06T03:13:03.147Z,100909.41
2022-12-06T03:18:20.072Z,100905.09
2022-12-06T03:23:32.714Z,100909.41
2022-12-06T03:28:40.858Z,100900.84
2022-12-06T03:33:53.248Z,100900.00
2022-12-06T03:39:04.135Z,100896.56
2022-12-06T03:44:12.320Z,100889.69
2022-12-06T03:49:23.830Z,100882.84
2022-12-06T03:54:30.070Z,100876.81
2022-12-06T03:59:36.513Z,100873.41
2022-12-06T04:04:44.674Z,100865.66
2022-12-06T04:09:56.661Z,100864.81
2022-12-06T04:15:03.271Z,100867.38
2022-12-06T04:20:12.065Z,100864.81
2022-12-06T04:25:18.182Z,100851.94
2022-12-06T04:30:41.382Z,100858.00
2022-12-06T04:36:06.337Z,100862.25
2022-12-06T04:41:33.165Z,100857.94
2022-12-06T04:46:39.355Z,100856.22
2022-12-06T04:51:47.230Z,100862.25
2022-12-06T04:56:53.312Z,100851.94
2022-12-06T05:01:59.586Z,100829.66
2022-12-06T05:07:07.841Z,100832.25
2022-12-06T05:12:14.710Z,100827.09
2022-12-06T05:17:20.977Z,100824.53
2022-12-06T05:22:28.645Z,100812.50
2022-12-06T05:27:36.225Z,100797.88
2022-12-06T05:32:42.915Z,100794.50
2022-12-06T05:37:50.940Z,100786.81
2022-12-06T05:42:57.237Z,100792.78
2022-12-06T05:48:03.719Z,100785.03
2022-12-06T05:53:12.124Z,100785.03
2022-12-06T05:58:19.671Z,100791.06
2022-12-06T06:03:26.208Z,100779.03
2022-12-06T06:08:34.248Z,100777.31
2022-12-06T06:13:40.657Z,100784.19
2022-12-06T06:18:47.085Z,100790.22
2022-12-06T06:23:57.722Z,100782.50
2022-12-06T06:29:04.184Z,100785.94
2022-12-06T06:34:10.635Z,100795.38
2022-12-06T06:39:18.711Z,100795.38
2022-12-06T06:44:25.061Z,100791.09
2022-12-06T06:49:31.265Z,100773.94
2022-12-06T06:54:39.018Z,100779.97
2022-12-06T06:59:45.740Z,100778.25
2022-12-06T07:04:52.352Z,100773.13
2022-12-06T07:10:00.393Z,100768.00
2022-12-06T07:15:08.337Z,100768.88
2022-12-06T07:20:15.176Z,100768.00
2022-12-06T07:25:22.906Z,100762.00
2022-12-06T07:30:29.409Z,100758.56
2022-12-06T07:36:10.172Z,100758.56
2022-12-06T07:41:29.658Z,100747.44
2022-12-06T07:46:36.040Z,100753.44
2022-12-06T07:51:42.333Z,100750.06
2022-12-06T07:56:50.048Z,100753.50
2022-12-06T08:01:57.358Z,100741.50
2022-12-06T08:07:03.636Z,100750.09
2022-12-06T08:12:12.348Z,100737.25
2022-12-06T08:17:18.908Z,100745.88
2022-12-06T08:22:25.630Z,100738.13
2022-12-06T08:27:33.669Z,100733.78
2022-12-06T08:32:40.283Z,100737.25
2022-12-06T08:37:46.765Z,100745.84
2022-12-06T08:42:55.755Z,100746.75
2022-12-06T08:48:02.316Z,100737.25
2022-12-06T08:53:08.787Z,100736.44
2022-12-06T08:58:16.616Z,100745.03
2022-12-06T09:03:23.925Z,100744.16
2022-12-06T09:08:30.193Z,100742.44
2022-12-06T09:13:39.866Z,100737.28
2022-12-06T09:18:47.121Z,100728.75
2022-12-06T09:23:56.386Z,100723.59
2022-12-06T09:29:04.042Z,100713.31
2022-12-06T09:34:11.607Z,100716.75
2022-12-06T09:39:22.036Z,100714.19
2022-12-06T09:45:10.391Z,100703.91
2022-12-06T09:50:28.289Z,100696.16
2022-12-06T09:55:53.325Z,100680.72
2022-12-06T10:01:12.943Z,100665.25
2022-12-06T10:06:23.100Z,100650.66
2022-12-06T10:11:54.955Z,100644.72
2022-12-06T10:17:13.972Z,100645.59
2022-12-06T10:22:32.450Z,100643.03
2022-12-06T10:27:41.853Z,100630.94
2022-12-06T10:32:57.345Z,100623.22
2022-12-06T10:38:15.784Z,100614.63
2022-12-06T10:43:30.884Z,100613.78
2022-12-06T10:48:46.622Z,100600.91
2022-12-06T10:54:01.951Z,100596.59
2022-12-06T10:59:26.485Z,100588.03
2022-12-06T11:04:38.489Z,100584.56
2022-12-06T11:09:47.748Z,100590.59
2022-12-06T11:15:00.926Z,100586.34
2022-12-06T11:20:23.615Z,100576.91
2022-12-06T11:25:36.683Z,100561.44
2022-12-06T11:30:43.157Z,100555.44
2022-12-06T11:35:51.286Z,100546.88
2022-12-06T11:40:58.154Z,100538.31
2022-12-06T11:46:07.385Z,100538.28
2022-12-06T11:51:21.530Z,100535.69
2022-12-06T11:56:31.972Z,100539.13
2022-12-06T12:01:47.698Z,100533.97
2022-12-06T12:07:01.931Z,100530.53
2022-12-06T12:12:18.840Z,100530.53
2022-12-06T12:17:32.026Z,100504.75
2022-12-06T12:22:43.115Z,100505.59
2022-12-06T12:27:52.057Z,100507.34
2022-12-06T12:33:21.001Z,100501.28
2022-12-06T12:38:40.178Z,100502.13
2022-12-06T12:44:13.758Z,100492.72
2022-12-06T12:49:33.200Z,100481.50
2022-12-06T12:54:41.612Z,100472.91
2022-12-06T12:59:48.056Z,100475.47
2022-12-06T13:05:24.827Z,100476.34
2022-12-06T13:10:35.379Z,100472.06
2022-12-06T13:15:47.672Z,100470.31
2022-12-06T13:20:57.482Z,100475.47
2022-12-06T13:26:20.650Z,100478.06
2022-12-06T13:31:33.589Z,100472.88
2022-12-06T13:36:40.184Z,100470.34
2022-12-06T13:42:18.054Z,100463.41
2022-12-06T13:47:51.953Z,100447.97
2022-12-06T13:53:04.870Z,100449.69
2022-12-06T13:58:53.896Z,100442.84
2022-12-06T14:04:01.504Z,100436.81
2022-12-06T14:09:12.915Z,100432.50
2022-12-06T14:14:24.792Z,100434.22
2022-12-06T14:19:41.936Z,100436.81
2022-12-06T14:25:02.818Z,100439.38
2022-12-06T14:30:25.607Z,100441.94
2022-12-06T14:35:36.477Z,100442.81
2022-12-06T14:41:03.458Z,100437.66
2022-12-06T14:46:16.224Z,100431.63
2022-12-06T14:51:27.192Z,100434.22
2022-12-06T14:56:37.293Z,100423.91
2022-12-06T15:01:54.710Z,100429.91
2022-12-06T15:07:01.619Z,100417.91
2022-12-06T15:12:42.314Z,100415.28
2022-12-06T15:17:51.553Z,100411.00
2022-12-06T15:22:58.182Z,100408.41
2022-12-06T15:28:04.677Z,100402.38
2022-12-06T15:33:18.445Z,100402.44
2022-12-06T15:38:24.966Z,100393.81
2022-12-06T15:43:34.408Z,100391.22
2022-12-06T15:48:43.304Z,100380.06
2022-12-06T15:53:52.205Z,100378.34
2022-12-06T15:58:58.983Z,100381.78
2022-12-06T16:04:07.395Z,100377.50
2022-12-06T16:09:15.558Z,100376.63
2022-12-06T16:14:23.873Z,100363.75
2022-12-06T16:19:45.792Z,100353.44
2022-12-06T16:24:54.156Z,100352.59
2022-12-06T16:30:02.467Z,100345.72
2022-12-06T16:35:13.649Z,100345.72
2022-12-06T16:40:23.971Z,100338.00
2022-12-06T16:45:31.937Z,100341.44
2022-12-06T16:50:40.765Z,100341.44
2022-12-06T16:55:48.186Z,100343.16
2022-12-06T17:00:55.694Z,100336.25
2022-12-06T17:06:08.703Z,100334.53
2022-12-06T17:11:39.774Z,100329.34
2022-12-06T17:16:48.839Z,100325.06
2022-12-06T17:22:02.756Z,100325.91
2022-12-06T17:27:14.303Z,100327.59
2022-12-06T17:32:22.952Z,100336.94
2022-12-06T17:37:34.824Z,100332.59
2022-12-06T17:43:00.008Z,100334.22
2022-12-06T17:48:09.096Z,100330.78
2022-12-06T17:53:20.006Z,100327.38
2022-12-06T17:58:28.683Z,100324.78
2022-12-06T18:03:36.113Z,100328.22
2022-12-06T18:08:45.791Z,100322.28
2022-12-06T18:13:56.296Z,100312.75
2022-12-06T18:19:08.767Z,100305.00
2022-12-06T18:24:22.629Z,100302.38
2022-12-06T18:29:33.143Z,100287.81
2022-12-06T18:34:42.065Z,100293.00
2022-12-06T18:39:54.273Z,100282.72
2022-12-06T18:45:05.412Z,100293.03
2022-12-06T18:50:16.015Z,100274.19
2022-12-06T18:55:26.113Z,100279.28
2022-12-06T19:00:36.137Z,100275.81
2022-12-06T19:06:06.455Z,100278.31
2022-12-06T19:11:31.564Z,100277.44
2022-12-06T19:16:42.798Z,100280.00
2022-12-06T19:21:53.434Z,100275.66
2022-12-06T19:27:04.348Z,100274.84
2022-12-06T19:32:25.043Z,100266.25
2022-12-06T19:37:35.178Z,100262.91
2022-12-06T19:43:03.493Z,100256.84
2022-12-06T19:48:15.336Z,100254.25
2022-12-06T19:53:26.794Z,100245.75
2022-12-06T19:58:39.382Z,100245.75
2022-12-06T20:03:48.420Z,100247.50
2022-12-06T20:09:02.278Z,100251.78
2022-12-06T20:14:18.732Z,100235.53
2022-12-06T20:19:29.392Z,100230.38
2022-12-06T20:24:39.252Z,100235.50
2022-12-06T20:29:51.272Z,100226.94
2022-12-06T20:35:00.866Z,100215.78
2022-12-06T20:40:16.140Z,100214.03
2022-12-06T20:45:29.927Z,100218.28
2022-12-06T20:50:45.852Z,100205.44
2022-12-06T20:55:54.610Z,100201.97
2022-12-06T21:01:06.323Z,100203.72
2022-12-06T21:06:14.385Z,100192.56
2022-12-06T21:11:24.031Z,100190.84
2022-12-06T21:16:38.580Z,100186.59
2022-12-06T21:21:50.681Z,100182.25
2022-12-06T21:26:57.880Z,100186.53
2022-12-06T21:32:05.755Z,100184.00
2022-12-06T21:37:12.212Z,100185.69
2022-12-06T21:42:21.511Z,100184.81
2022-12-06T21:47:29.403Z,100181.31
2022-12-06T21:52:35.944Z,100173.59
2022-12-06T21:57:42.553Z,100163.38
2022-12-06T22:02:54.803Z,100162.53
2022-12-06T22:08:01.384Z,100156.53
2022-12-06T22:13:08.148Z,100149.72
2022-12-06T22:18:15.944Z,100146.28
2022-12-06T22:23:22.415Z,100155.69
2022-12-06T22:28:29.614Z,100156.53
2022-12-06T22:33:37.757Z,100153.09
2022-12-06T22:38:44.626Z,100152.25
2022-12-06T22:43:54.128Z,100148.81
2022-12-06T22:49:03.618Z,100143.66
2022-12-06T22:54:15.948Z,100140.28
2022-12-06T22:59:22.653Z,100131.69
2022-12-06T23:04:30.579Z,100123.97
2022-12-06T23:09:37.176Z,100124.84
2022-12-06T23:14:43.789Z,100129.09
2022-12-06T23:19:51.478Z,100114.50
2022-12-06T23:24:57.965Z,100113.69
2022-12-06T23:30:04.785Z,100111.13
2022-12-06T23:35:13.525Z,100120.50
2022-12-06T23:40:20.162Z,100112.75
2022-12-06T23:45:26.883Z,100102.50
2022-12-06T23:50:34.918Z,100102.53
2022-12-06T23:55:41.097Z,100091.38
